createdAt,value
2018-05-10T00:00:07.368Z,0
2018-05-10T00:00:47.878Z,0
2018-05-10T00:01:28.401Z,0
2018-05-10T00:02:08.929Z,0
2018-05-10T00:02:49.465Z,0
2018-05-10T00:03:29.975Z,0
2018-05-10T00:04:10.487Z,0
2018-05-10T00:04:50.975Z,0
2018-05-10T00:05:31.493Z,0
2018-05-10T00:06:12.019Z,0
2018-05-10T00:06:52.527Z,0
2018-05-10T00:07:33.083Z,0
2018-05-10T00:08:13.604Z,0
2018-05-10T00:08:54.076Z,0
2018-05-10T00:09:34.577Z,0
2018-05-10T00:10:15.095Z,0
2018-05-10T00:10:55.599Z,0
2018-05-10T00:11:36.114Z,0
2018-05-10T00:12:16.624Z,0
2018-05-10T00:12:57.156Z,0
2018-05-10T00:13:37.689Z,0
2018-05-10T00:14:18.189Z,0
2018-05-10T00:14:58.721Z,0
2018-05-10T00:15:39.273Z,0
2018-05-10T00:16:19.799Z,0
2018-05-10T00:17:00.309Z,0
2018-05-10T00:17:40.813Z,0
2018-05-10T00:18:21.329Z,0
2018-05-10T00:19:01.837Z,0
2018-05-10T00:19:42.331Z,0
2018-05-10T00:20:22.847Z,0
2018-05-10T00:21:03.408Z,0
2018-05-10T00:21:43.897Z,0
2018-05-10T00:22:24.381Z,0
2018-05-10T00:23:04.877Z,0
2018-05-10T00:23:45.362Z,0
2018-05-10T00:24:25.916Z,0
2018-05-10T00:25:06.388Z,0
2018-05-10T00:25:46.925Z,0
2018-05-10T00:26:27.443Z,0
2018-05-10T00:27:07.957Z,0
2018-05-10T00:27:48.462Z,0
2018-05-10T00:28:29.002Z,0
2018-05-10T00:29:09.498Z,0
2018-05-10T00:29:49.974Z,0
2018-05-10T00:30:30.472Z,0
2018-05-10T00:31:11.015Z,0
2018-05-10T00:31:51.535Z,0
2018-05-10T00:32:32.061Z,0
2018-05-10T00:33:12.572Z,0
2018-05-10T00:33:53.096Z,0
2018-05-10T00:34:33.687Z,0
2018-05-10T00:35:14.069Z,0
2018-05-10T00:35:54.589Z,0
2018-05-10T00:36:35.113Z,0
2018-05-10T00:37:15.636Z,0
2018-05-10T00:37:56.156Z,0
2018-05-10T00:38:36.667Z,0
2018-05-10T00:39:17.203Z,0
2018-05-10T00:39:57.713Z,0
2018-05-10T00:40:38.230Z,0
2018-05-10T00:41:18.757Z,0
2018-05-10T00:41:59.273Z,0
2018-05-10T00:42:39.797Z,0
2018-05-10T00:43:20.303Z,0
2018-05-10T00:44:00.812Z,0
2018-05-10T00:44:41.328Z,0
2018-05-10T00:45:21.856Z,0
2018-05-10T00:46:02.370Z,0
2018-05-10T00:46:42.894Z,0
2018-05-10T00:47:23.412Z,0
2018-05-10T00:48:03.928Z,0
2018-05-10T00:48:44.447Z,0
2018-05-10T00:49:24.987Z,0
2018-05-10T00:50:05.509Z,0
2018-05-10T00:50:46.021Z,0
2018-05-10T00:51:26.562Z,0
2018-05-10T00:52:07.064Z,0
2018-05-10T00:52:47.568Z,0
2018-05-10T00:53:28.085Z,0
2018-05-10T00:54:08.597Z,0
2018-05-10T00:54:49.106Z,0
2018-05-10T00:55:29.627Z,0
2018-05-10T00:56:10.154Z,0
2018-05-10T00:56:50.674Z,0
2018-05-10T00:57:31.202Z,0
2018-05-10T00:58:11.723Z,0
2018-05-10T00:58:52.241Z,0
2018-05-10T00:59:32.749Z,0
2018-05-10T01:00:13.280Z,0
2018-05-10T01:00:53.796Z,0
2018-05-10T01:01:34.318Z,0
2018-05-10T01:02:14.845Z,0
2018-05-10T01:02:55.362Z,0
2018-05-10T01:03:35.889Z,0
2018-05-10T01:04:16.417Z,0
2018-05-10T01:04:57.034Z,0
2018-05-10T01:05:37.461Z,0
2018-05-10T01:06:17.981Z,0
2018-05-10T01:06:58.502Z,0
2018-05-10T01:07:39.001Z,0
2018-05-10T01:08:19.537Z,0
2018-05-10T01:09:00.054Z,0
2018-05-10T01:09:40.565Z,0
2018-05-10T01:10:21.101Z,0
2018-05-10T01:11:01.630Z,0
2018-05-10T01:11:42.132Z,0
2018-05-10T01:12:22.650Z,0
2018-05-10T01:13:03.185Z,0
2018-05-10T01:13:43.709Z,0
2018-05-10T01:14:24.217Z,0
2018-05-10T01:15:04.730Z,0
2018-05-10T01:15:45.274Z,0
2018-05-10T01:16:25.747Z,0
2018-05-10T01:17:06.267Z,0
2018-05-10T01:17:46.775Z,0
2018-05-10T01:18:27.301Z,0
2018-05-10T01:19:07.840Z,0
2018-05-10T01:19:48.366Z,0
2018-05-10T01:20:28.882Z,0
2018-05-10T01:21:09.400Z,0
2018-05-10T01:21:49.917Z,0
2018-05-10T01:22:30.442Z,0
2018-05-10T01:23:10.953Z,0
2018-05-10T01:23:51.470Z,0
2018-05-10T01:24:31.984Z,0
2018-05-10T01:25:12.494Z,0
2018-05-10T01:25:53.004Z,0
2018-05-10T01:26:33.507Z,0
2018-05-10T01:27:14.034Z,0
2018-05-10T01:27:54.542Z,0
2018-05-10T01:28:35.050Z,0
2018-05-10T01:29:15.581Z,0
2018-05-10T01:29:56.102Z,0
2018-05-10T01:30:36.611Z,0
2018-05-10T01:31:17.140Z,0
2018-05-10T01:31:57.679Z,0
2018-05-10T01:32:38.203Z,0
2018-05-10T01:33:18.717Z,0
2018-05-10T01:33:59.235Z,0
2018-05-10T01:34:39.751Z,0
2018-05-10T01:35:20.261Z,0
2018-05-10T01:36:00.786Z,0
2018-05-10T01:36:41.297Z,0
2018-05-10T01:37:21.818Z,0
2018-05-10T01:38:02.340Z,0
2018-05-10T01:38:42.856Z,0
2018-05-10T01:39:23.371Z,0
2018-05-10T01:40:03.889Z,0
2018-05-10T01:40:44.444Z,0
2018-05-10T01:41:24.946Z,0
2018-05-10T01:42:05.462Z,0
2018-05-10T01:42:45.975Z,0
2018-05-10T01:43:26.494Z,0
2018-05-10T01:44:07.005Z,0
2018-05-10T01:44:47.518Z,0
2018-05-10T01:45:28.113Z,0
2018-05-10T01:46:08.559Z,0
2018-05-10T01:46:49.085Z,0
2018-05-10T01:47:29.611Z,0
2018-05-10T01:48:10.137Z,0
2018-05-10T01:48:50.637Z,0
2018-05-10T01:49:31.144Z,0
2018-05-10T01:50:11.663Z,0
2018-05-10T01:50:52.186Z,0
2018-05-10T01:51:32.684Z,0
2018-05-10T01:52:13.188Z,0
2018-05-10T01:52:53.739Z,0
2018-05-10T01:53:34.207Z,0
2018-05-10T01:54:14.718Z,0
2018-05-10T01:54:55.253Z,0
2018-05-10T01:55:35.771Z,0
2018-05-10T01:56:16.275Z,0
2018-05-10T01:56:56.773Z,0
2018-05-10T01:57:37.296Z,0
2018-05-10T01:58:17.823Z,0
2018-05-10T01:58:58.339Z,0
2018-05-10T01:59:38.842Z,0
2018-05-10T02:00:19.345Z,0
2018-05-10T02:00:59.998Z,0
2018-05-10T02:01:40.448Z,0
2018-05-10T02:02:20.960Z,0
2018-05-10T02:03:01.481Z,0
2018-05-10T02:03:42.026Z,0
2018-05-10T02:04:22.547Z,0
2018-05-10T02:05:03.059Z,0
2018-05-10T02:05:43.589Z,0
2018-05-10T02:06:24.110Z,0
2018-05-10T02:07:04.628Z,0
2018-05-10T02:07:45.154Z,0
2018-05-10T02:08:25.670Z,0
2018-05-10T02:09:06.189Z,0
2018-05-10T02:09:46.703Z,0
2018-05-10T02:10:27.219Z,0
2018-05-10T02:11:07.749Z,0
2018-05-10T02:11:48.286Z,0
2018-05-10T02:12:28.869Z,0
2018-05-10T02:13:09.395Z,0
2018-05-10T02:13:49.919Z,0
2018-05-10T02:14:30.422Z,0
2018-05-10T02:15:10.901Z,0
2018-05-10T02:15:51.427Z,0
2018-05-10T02:16:31.929Z,0
2018-05-10T02:17:12.436Z,0
2018-05-10T02:17:52.975Z,0
2018-05-10T02:18:33.503Z,0
2018-05-10T02:19:14.038Z,0
2018-05-10T02:19:54.558Z,0
2018-05-10T02:20:35.084Z,0
2018-05-10T02:21:15.605Z,0
2018-05-10T02:21:56.134Z,0
2018-05-10T02:22:36.647Z,0
2018-05-10T02:23:17.173Z,0
2018-05-10T02:23:57.685Z,0
2018-05-10T02:24:38.204Z,0
2018-05-10T02:25:18.724Z,0
2018-05-10T02:25:59.240Z,0
2018-05-10T02:26:39.757Z,0
2018-05-10T02:27:20.281Z,0
2018-05-10T02:28:00.818Z,0
2018-05-10T02:28:41.336Z,0
2018-05-10T02:29:21.903Z,0
2018-05-10T02:30:02.378Z,0
2018-05-10T02:30:42.908Z,0
2018-05-10T02:31:23.421Z,0
2018-05-10T02:32:03.949Z,0
2018-05-10T02:32:44.458Z,0
2018-05-10T02:33:24.973Z,0
2018-05-10T02:34:05.487Z,0
2018-05-10T02:34:46.019Z,0
2018-05-10T02:35:26.531Z,0
2018-05-10T02:36:07.046Z,0
2018-05-10T02:36:47.565Z,0
2018-05-10T02:37:28.081Z,0
2018-05-10T02:38:08.586Z,0
2018-05-10T02:38:49.112Z,0
2018-05-10T02:39:29.640Z,0
2018-05-10T02:40:10.161Z,0
2018-05-10T02:40:50.676Z,0
2018-05-10T02:41:31.197Z,0
2018-05-10T02:42:11.719Z,0
2018-05-10T02:42:52.253Z,0
2018-05-10T02:43:32.765Z,0
2018-05-10T02:44:13.278Z,0
2018-05-10T02:44:53.808Z,0
2018-05-10T02:45:34.316Z,0
2018-05-10T02:46:14.834Z,0
2018-05-10T02:46:55.331Z,0
2018-05-10T02:47:35.864Z,0
2018-05-10T02:48:16.384Z,0
2018-05-10T02:48:56.901Z,0
2018-05-10T02:49:37.432Z,0
2018-05-10T02:50:17.953Z,0
2018-05-10T02:50:58.487Z,0
2018-05-10T02:51:39.006Z,0
2018-05-10T02:52:19.534Z,0
2018-05-10T02:53:00.053Z,0
2018-05-10T02:53:40.569Z,0
2018-05-10T02:54:21.072Z,0
2018-05-10T02:55:01.600Z,0
2018-05-10T02:55:42.127Z,0
2018-05-10T02:56:22.630Z,0
2018-05-10T02:57:03.151Z,0
2018-05-10T02:57:43.679Z,0
2018-05-10T02:58:24.195Z,0
2018-05-10T02:59:04.714Z,0
2018-05-10T02:59:45.238Z,0
2018-05-10T03:00:25.746Z,0
2018-05-10T03:01:06.280Z,0
2018-05-10T03:01:46.800Z,0
2018-05-10T03:02:27.323Z,0
2018-05-10T03:03:07.847Z,0
2018-05-10T03:03:48.385Z,0
2018-05-10T03:04:28.888Z,0
2018-05-10T03:05:09.411Z,0
2018-05-10T03:05:49.929Z,0
2018-05-10T03:06:30.461Z,0
2018-05-10T03:07:10.982Z,0
2018-05-10T03:07:51.496Z,0
2018-05-10T03:08:32.028Z,0
2018-05-10T03:09:12.541Z,0
2018-05-10T03:09:53.054Z,0
2018-05-10T03:10:33.583Z,0
2018-05-10T03:11:14.107Z,0
2018-05-10T03:11:54.637Z,0
2018-05-10T03:12:35.154Z,0
2018-05-10T03:13:15.678Z,0
2018-05-10T03:13:56.194Z,0
2018-05-10T03:14:36.722Z,0
2018-05-10T03:15:17.233Z,0
2018-05-10T03:15:57.776Z,0
2018-05-10T03:16:38.297Z,0
2018-05-10T03:17:18.816Z,0
2018-05-10T03:17:59.328Z,0
2018-05-10T03:18:39.845Z,0
2018-05-10T03:19:20.362Z,0
2018-05-10T03:20:00.881Z,0
2018-05-10T03:20:41.406Z,0
2018-05-10T03:21:21.902Z,0
2018-05-10T03:22:02.412Z,0
2018-05-10T03:22:42.926Z,0
2018-05-10T03:23:23.444Z,0
2018-05-10T03:24:04.003Z,0
2018-05-10T03:24:44.514Z,0
2018-05-10T03:25:25.026Z,0
2018-05-10T03:26:05.545Z,0
2018-05-10T03:26:46.077Z,0
2018-05-10T03:27:26.592Z,0
2018-05-10T03:28:07.129Z,0
2018-05-10T03:28:47.651Z,0
2018-05-10T03:29:28.176Z,0
2018-05-10T03:30:08.695Z,0
2018-05-10T03:30:49.207Z,0
2018-05-10T03:31:29.729Z,0
2018-05-10T03:32:10.245Z,4
2018-05-10T03:32:50.751Z,4
2018-05-10T03:33:31.272Z,4
2018-05-10T03:34:11.807Z,4
2018-05-10T03:34:52.320Z,0
2018-05-10T03:35:32.840Z,0
2018-05-10T03:36:13.393Z,0
2018-05-10T03:36:53.896Z,4
2018-05-10T03:37:34.426Z,4
2018-05-10T03:38:14.942Z,4
2018-05-10T03:38:55.462Z,4
2018-05-10T03:39:35.987Z,4
2018-05-10T03:40:16.505Z,0
2018-05-10T03:40:57.017Z,4
2018-05-10T03:41:37.532Z,4
2018-05-10T03:42:18.071Z,4
2018-05-10T03:42:58.580Z,4
2018-05-10T03:43:39.096Z,8
2018-05-10T03:44:19.632Z,8
2018-05-10T03:45:00.136Z,4
2018-05-10T03:45:40.667Z,4
2018-05-10T03:46:21.239Z,4
2018-05-10T03:47:01.691Z,8
2018-05-10T03:47:42.202Z,8
2018-05-10T03:48:22.734Z,8
2018-05-10T03:49:03.300Z,8
2018-05-10T03:49:43.821Z,8
2018-05-10T03:50:24.327Z,12
2018-05-10T03:51:04.853Z,8
2018-05-10T03:51:45.386Z,8
2018-05-10T03:52:25.901Z,8
2018-05-10T03:53:06.426Z,8
2018-05-10T03:53:46.953Z,12
2018-05-10T03:54:27.475Z,12
2018-05-10T03:55:08.001Z,12
2018-05-10T03:55:48.514Z,8
2018-05-10T03:56:29.038Z,12
2018-05-10T03:57:09.580Z,12
2018-05-10T03:57:50.076Z,12
2018-05-10T03:58:30.585Z,12
2018-05-10T03:59:11.098Z,12
2018-05-10T03:59:51.620Z,16
2018-05-10T04:00:32.145Z,16
2018-05-10T04:01:12.668Z,16
2018-05-10T04:01:53.188Z,16
2018-05-10T04:02:33.700Z,20
2018-05-10T04:03:14.232Z,16
2018-05-10T04:03:54.749Z,20
2018-05-10T04:04:35.255Z,20
2018-05-10T04:05:15.791Z,20
2018-05-10T04:05:56.308Z,24
2018-05-10T04:06:36.832Z,24
2018-05-10T04:07:17.362Z,24
2018-05-10T04:07:57.946Z,24
2018-05-10T04:08:38.473Z,28
2018-05-10T04:09:18.998Z,28
2018-05-10T04:09:59.517Z,28
2018-05-10T04:10:40.025Z,32
2018-05-10T04:11:20.533Z,32
2018-05-10T04:12:01.046Z,36
2018-05-10T04:12:41.576Z,32
2018-05-10T04:13:22.082Z,36
2018-05-10T04:14:02.597Z,36
2018-05-10T04:14:43.117Z,36
2018-05-10T04:15:23.640Z,40
2018-05-10T04:16:04.150Z,40
2018-05-10T04:16:44.673Z,44
2018-05-10T04:17:25.188Z,44
2018-05-10T04:18:05.698Z,48
2018-05-10T04:18:46.218Z,48
2018-05-10T04:19:26.738Z,48
2018-05-10T04:20:07.266Z,48
2018-05-10T04:20:47.784Z,52
2018-05-10T04:21:28.328Z,52
2018-05-10T04:22:08.854Z,56
2018-05-10T04:22:49.357Z,60
2018-05-10T04:23:29.866Z,60
2018-05-10T04:24:10.385Z,64
2018-05-10T04:24:50.904Z,68
2018-05-10T04:25:31.427Z,68
2018-05-10T04:26:11.947Z,72
2018-05-10T04:26:52.472Z,72
2018-05-10T04:27:32.989Z,76
2018-05-10T04:28:13.512Z,76
2018-05-10T04:28:54.032Z,76
2018-05-10T04:29:34.549Z,80
2018-05-10T04:30:15.064Z,76
2018-05-10T04:30:55.584Z,80
2018-05-10T04:31:36.119Z,80
2018-05-10T04:32:16.619Z,84
2018-05-10T04:32:57.140Z,88
2018-05-10T04:33:37.671Z,88
2018-05-10T04:34:18.183Z,88
2018-05-10T04:34:58.704Z,88
2018-05-10T04:35:39.227Z,96
2018-05-10T04:36:19.784Z,96
2018-05-10T04:37:00.228Z,100
2018-05-10T04:37:40.758Z,96
2018-05-10T04:38:21.269Z,100
2018-05-10T04:39:01.790Z,100
2018-05-10T04:39:42.300Z,100
2018-05-10T04:40:22.779Z,100
2018-05-10T04:41:03.249Z,96
2018-05-10T04:41:43.726Z,100
2018-05-10T04:42:24.225Z,104
2018-05-10T04:43:04.735Z,104
2018-05-10T04:43:45.257Z,104
2018-05-10T04:44:25.729Z,104
2018-05-10T04:45:06.256Z,108
2018-05-10T04:45:46.744Z,108
2018-05-10T04:46:27.185Z,112
2018-05-10T04:47:07.700Z,112
2018-05-10T04:47:48.208Z,116
2018-05-10T04:48:28.708Z,120
2018-05-10T04:49:09.248Z,120
2018-05-10T04:49:49.775Z,124
2018-05-10T04:50:30.337Z,124
2018-05-10T04:52:45.349Z,132
2018-05-10T04:53:25.911Z,128
2018-05-10T04:54:06.507Z,128
2018-05-10T04:54:47.052Z,124
2018-05-10T04:55:27.501Z,132
2018-05-10T04:56:08.003Z,132
2018-05-10T04:56:48.533Z,140
2018-05-10T04:57:29.393Z,140
2018-05-10T04:58:09.912Z,144
2018-05-10T04:58:51.343Z,144
2018-05-10T05:01:13.809Z,152
2018-05-10T05:01:54.397Z,156
2018-05-10T05:02:34.909Z,160
2018-05-10T05:03:15.428Z,156
2018-05-10T05:03:56.297Z,160
2018-05-10T05:04:36.890Z,164
2018-05-10T05:05:17.406Z,160
2018-05-10T05:05:57.925Z,164
2018-05-10T05:06:39.241Z,164
2018-05-10T05:07:19.747Z,172
2018-05-10T05:08:00.283Z,172
2018-05-10T05:08:40.812Z,172
2018-05-10T05:09:21.336Z,176
2018-05-10T05:10:01.846Z,176
2018-05-10T05:10:42.366Z,176
2018-05-10T05:11:22.968Z,176
2018-05-10T05:12:04.897Z,188
2018-05-10T05:12:45.577Z,192
2018-05-10T05:13:26.111Z,196
2018-05-10T05:14:06.616Z,196
2018-05-10T05:14:47.131Z,204
2018-05-10T05:15:28.809Z,212
2018-05-10T05:16:09.345Z,232
2018-05-10T05:16:49.856Z,248
2018-05-10T05:17:31.897Z,260
2018-05-10T05:18:12.425Z,268
2018-05-10T05:18:52.958Z,280
2018-05-10T05:19:33.468Z,288
2018-05-10T05:20:13.988Z,296
2018-05-10T05:20:54.522Z,300
2018-05-10T05:21:35.039Z,304
2018-05-10T05:22:15.607Z,308
2018-05-10T05:22:56.119Z,312
2018-05-10T05:23:36.641Z,308
2018-05-10T05:24:17.144Z,312
2018-05-10T05:24:57.675Z,316
2018-05-10T05:25:38.156Z,328
2018-05-10T05:26:18.933Z,336
2018-05-10T05:26:59.483Z,348
2018-05-10T05:27:40.120Z,356
2018-05-10T05:28:20.635Z,364
2018-05-10T05:29:01.153Z,368
2018-05-10T05:29:41.669Z,368
2018-05-10T05:30:22.670Z,376
2018-05-10T05:31:03.166Z,372
2018-05-10T05:31:43.678Z,372
2018-05-10T05:32:24.168Z,372
2018-05-10T05:33:04.665Z,368
2018-05-10T05:33:45.161Z,372
2018-05-10T05:34:25.689Z,376
2018-05-10T05:35:06.194Z,384
2018-05-10T05:35:46.693Z,388
2018-05-10T05:36:27.209Z,396
2018-05-10T05:37:07.723Z,408
2018-05-10T05:37:48.248Z,416
2018-05-10T05:38:28.772Z,424
2018-05-10T05:39:09.293Z,432
2018-05-10T05:39:49.805Z,440
2018-05-10T05:40:30.330Z,456
2018-05-10T05:41:10.959Z,464
2018-05-10T05:41:51.383Z,472
2018-05-10T05:42:31.908Z,484
2018-05-10T05:43:12.552Z,492
2018-05-10T05:43:52.958Z,500
2018-05-10T05:44:33.490Z,516
2018-05-10T05:45:14.018Z,528
2018-05-10T05:45:54.587Z,540
2018-05-10T05:46:35.102Z,552
2018-05-10T05:47:15.619Z,564
2018-05-10T05:47:56.816Z,584
2018-05-10T05:48:37.334Z,604
2018-05-10T05:49:17.852Z,628
2018-05-10T05:49:58.376Z,652
2018-05-10T05:50:38.907Z,680
2018-05-10T05:51:19.448Z,700
2018-05-10T05:51:59.929Z,720
2018-05-10T05:52:41.609Z,744
2018-05-10T05:53:22.154Z,768
2018-05-10T05:54:03.261Z,792
2018-05-10T05:54:43.866Z,808
2018-05-10T05:55:24.343Z,832
2018-05-10T05:56:04.808Z,856
2018-05-10T05:56:45.343Z,868
2018-05-10T05:57:25.832Z,900
2018-05-10T05:58:06.325Z,940
2018-05-10T05:58:46.806Z,980
2018-05-10T05:59:27.302Z,1016
2018-05-10T06:00:07.783Z,1048
2018-05-10T06:00:48.273Z,1052
2018-05-10T06:01:29.045Z,1024
2018-05-10T06:02:09.531Z,1012
2018-05-10T06:02:50.066Z,1000
2018-05-10T06:03:30.531Z,1080
2018-05-10T06:04:11.028Z,1128
2018-05-10T06:04:51.475Z,1152
2018-05-10T06:05:31.982Z,1120
2018-05-10T06:06:12.538Z,1012
2018-05-10T06:06:53.025Z,948
2018-05-10T06:07:33.516Z,888
2018-05-10T06:08:14.141Z,916
2018-05-10T06:08:54.613Z,920
2018-05-10T06:09:35.133Z,936
2018-05-10T06:10:15.630Z,880
2018-05-10T06:10:56.314Z,896
2018-05-10T06:11:36.778Z,904
2018-05-10T06:12:17.307Z,976
2018-05-10T06:12:57.793Z,964
2018-05-10T06:13:38.273Z,984
2018-05-10T06:14:18.776Z,1008
2018-05-10T06:14:59.244Z,1016
2018-05-10T06:15:39.809Z,1016
2018-05-10T06:16:20.236Z,1008
2018-05-10T06:17:00.754Z,960
2018-05-10T06:17:41.262Z,896
2018-05-10T06:18:21.742Z,872
2018-05-10T06:19:03.051Z,908
2018-05-10T06:19:43.563Z,908
2018-05-10T06:20:24.067Z,900
2018-05-10T06:21:04.707Z,872
2018-05-10T06:21:45.140Z,860
2018-05-10T06:22:25.639Z,808
2018-05-10T06:23:06.183Z,772
2018-05-10T06:23:46.641Z,772
2018-05-10T06:24:27.122Z,784
2018-05-10T06:25:07.713Z,804
2018-05-10T06:25:48.205Z,828
2018-05-10T06:26:28.656Z,812
2018-05-10T06:27:09.161Z,804
2018-05-10T06:27:49.634Z,740
2018-05-10T06:28:30.149Z,716
2018-05-10T06:29:10.675Z,748
2018-05-10T06:29:51.185Z,724
2018-05-10T06:30:31.715Z,708
2018-05-10T06:31:12.226Z,712
2018-05-10T06:31:52.745Z,752
2018-05-10T06:32:33.214Z,788
2018-05-10T06:33:13.759Z,788
2018-05-10T06:33:54.251Z,812
2018-05-10T06:34:34.739Z,848
2018-05-10T06:35:15.257Z,948
2018-05-10T06:35:55.745Z,1088
2018-05-10T06:36:36.254Z,1116
2018-05-10T06:37:16.765Z,1036
2018-05-10T06:37:57.261Z,1040
2018-05-10T06:38:37.752Z,1084
2018-05-10T06:39:18.257Z,1168
2018-05-10T06:39:58.825Z,1244
2018-05-10T06:40:39.314Z,1180
2018-05-10T06:41:19.805Z,1028
2018-05-10T06:42:00.321Z,916
2018-05-10T06:42:41.556Z,804
2018-05-10T06:43:21.307Z,728
2018-05-10T06:44:01.830Z,740
2018-05-10T06:44:42.365Z,736
2018-05-10T06:45:22.968Z,736
2018-05-10T06:46:07.056Z,676
2018-05-10T06:46:47.783Z,712
2018-05-10T06:47:28.435Z,696
2018-05-10T06:48:08.787Z,700
2018-05-10T06:48:49.380Z,704
2018-05-10T06:49:30.030Z,700
2018-05-10T06:50:10.404Z,684
2018-05-10T06:50:50.955Z,712
2018-05-10T06:51:31.477Z,804
2018-05-10T06:52:12.285Z,896
2018-05-10T06:52:52.747Z,1004
2018-05-10T06:53:33.216Z,1164
2018-05-10T06:54:13.769Z,1348
2018-05-10T06:54:54.210Z,1408
2018-05-10T06:55:34.671Z,1392
2018-05-10T06:56:15.166Z,1332
2018-05-10T06:56:55.710Z,1304
2018-05-10T06:57:36.221Z,1308
2018-05-10T06:58:16.717Z,1316
2018-05-10T06:58:57.255Z,1320
2018-05-10T06:59:37.762Z,1332
2018-05-10T07:00:18.198Z,1372
2018-05-10T07:00:58.693Z,1440
2018-05-10T07:01:39.218Z,1536
2018-05-10T07:02:19.670Z,1660
2018-05-10T07:03:00.205Z,1808
2018-05-10T07:03:40.794Z,1908
2018-05-10T07:04:21.359Z,1996
2018-05-10T07:05:01.801Z,1980
2018-05-10T07:05:42.550Z,1972
2018-05-10T07:06:23.021Z,1972
2018-05-10T07:07:03.509Z,1864
2018-05-10T07:07:44.044Z,1756
2018-05-10T07:08:24.877Z,1628
2018-05-10T07:09:05.266Z,1520
2018-05-10T07:09:45.934Z,1456
2018-05-10T07:10:26.259Z,1420
2018-05-10T07:11:06.762Z,1408
2018-05-10T07:11:47.457Z,1412
2018-05-10T07:12:27.945Z,1412
2018-05-10T07:13:08.462Z,1372
2018-05-10T07:13:48.910Z,1376
2018-05-10T07:14:29.467Z,1412
2018-05-10T07:15:09.953Z,1328
2018-05-10T07:15:50.423Z,1176
2018-05-10T07:16:32.935Z,1104
2018-05-10T07:17:13.393Z,1008
2018-05-10T07:17:53.974Z,960
2018-05-10T07:18:34.562Z,948
2018-05-10T07:19:15.070Z,1012
2018-05-10T07:19:55.525Z,1068
2018-05-10T07:20:36.011Z,1124
2018-05-10T07:21:16.589Z,1184
2018-05-10T07:21:57.115Z,1232
2018-05-10T07:22:37.664Z,1260
2018-05-10T07:23:18.071Z,1272
2018-05-10T07:23:58.575Z,1252
2018-05-10T07:24:39.301Z,1256
2018-05-10T07:25:19.970Z,1272
2018-05-10T07:26:00.639Z,1272
2018-05-10T07:26:41.659Z,1224
2018-05-10T07:27:22.309Z,1148
2018-05-10T07:28:02.810Z,1108
2018-05-10T07:28:43.291Z,1104
2018-05-10T07:29:23.862Z,1148
2018-05-10T07:30:04.494Z,1164
2018-05-10T07:30:44.932Z,1088
2018-05-10T07:31:25.523Z,1000
2018-05-10T07:32:06.087Z,944
2018-05-10T07:32:46.688Z,924
2018-05-10T07:33:27.080Z,916
2018-05-10T07:34:07.569Z,896
2018-05-10T07:34:48.123Z,908
2018-05-10T07:35:29.791Z,1056
2018-05-10T07:36:10.390Z,1224
2018-05-10T07:36:50.820Z,1336
2018-05-10T07:37:31.387Z,1356
2018-05-10T07:38:11.782Z,1300
2018-05-10T07:38:52.925Z,1188
2018-05-10T07:39:33.653Z,1104
2018-05-10T07:40:14.266Z,1128
2018-05-10T07:40:54.941Z,1220
2018-05-10T07:41:35.442Z,1292
2018-05-10T07:42:15.968Z,1348
2018-05-10T07:42:56.506Z,1400
2018-05-10T07:43:37.063Z,1436
2018-05-10T07:44:17.552Z,1468
2018-05-10T07:44:58.124Z,1456
2018-05-10T07:45:38.591Z,1456
2018-05-10T07:46:19.460Z,1508
2018-05-10T07:47:00.057Z,1584
2018-05-10T07:47:40.826Z,1668
2018-05-10T07:48:21.406Z,1788
2018-05-10T07:49:01.811Z,1864
2018-05-10T07:49:42.460Z,1912
2018-05-10T07:50:22.864Z,1964
2018-05-10T07:51:03.357Z,1996
2018-05-10T07:51:44.013Z,2032
2018-05-10T07:52:24.586Z,2044
2018-05-10T07:53:05.044Z,2024
2018-05-10T07:53:45.586Z,2048
2018-05-10T07:54:26.076Z,2032
2018-05-10T07:55:06.595Z,1964
2018-05-10T07:55:47.486Z,1848
2018-05-10T07:56:27.787Z,1872
2018-05-10T07:57:08.186Z,2032
2018-05-10T07:57:48.682Z,2156
2018-05-10T07:58:29.180Z,2228
2018-05-10T07:59:09.678Z,2284
2018-05-10T07:59:50.186Z,2312
2018-05-10T08:00:30.680Z,2284
2018-05-10T08:01:11.229Z,2288
2018-05-10T08:01:51.681Z,2268
2018-05-10T08:02:32.149Z,2180
2018-05-10T08:03:12.583Z,2036
2018-05-10T08:03:53.108Z,1932
2018-05-10T08:04:33.560Z,1892
2018-05-10T08:05:14.157Z,1892
2018-05-10T08:05:54.701Z,1844
2018-05-10T08:06:35.210Z,1860
2018-05-10T08:07:15.725Z,1812
2018-05-10T08:07:56.214Z,1760
2018-05-10T08:08:36.700Z,1876
2018-05-10T08:09:17.181Z,2072
2018-05-10T08:09:57.727Z,2160
2018-05-10T08:10:38.185Z,2256
2018-05-10T08:11:18.724Z,2392
2018-05-10T08:11:59.205Z,2580
2018-05-10T08:12:39.731Z,2780
2018-05-10T08:13:20.193Z,2736
2018-05-10T08:14:00.775Z,2620
2018-05-10T08:14:41.356Z,2764
2018-05-10T08:15:21.870Z,2852
2018-05-10T08:16:02.337Z,3040
2018-05-10T08:16:42.866Z,3180
2018-05-10T08:17:23.312Z,3128
2018-05-10T08:18:03.819Z,2716
2018-05-10T08:18:44.340Z,1720
2018-05-10T08:19:24.778Z,1364
2018-05-10T08:20:05.306Z,1496
2018-05-10T08:20:45.817Z,1972
2018-05-10T08:21:26.313Z,2420
2018-05-10T08:22:06.894Z,2644
2018-05-10T08:22:47.408Z,2568
2018-05-10T08:23:27.942Z,2160
2018-05-10T08:24:08.444Z,1572
2018-05-10T08:24:48.996Z,1432
2018-05-10T08:25:29.465Z,1704
2018-05-10T08:26:09.885Z,1824
2018-05-10T08:26:50.457Z,1832
2018-05-10T08:27:30.899Z,1328
2018-05-10T08:28:11.409Z,1112
2018-05-10T08:28:51.995Z,1388
2018-05-10T08:29:32.439Z,1596
2018-05-10T08:30:13.014Z,1748
2018-05-10T08:30:53.477Z,1784
2018-05-10T08:31:33.936Z,1744
2018-05-10T08:32:14.450Z,1472
2018-05-10T08:32:54.910Z,1080
2018-05-10T08:33:35.408Z,912
2018-05-10T08:34:15.882Z,732
2018-05-10T08:34:56.410Z,668
2018-05-10T08:35:36.898Z,756
2018-05-10T08:36:17.411Z,840
2018-05-10T08:36:57.907Z,868
2018-05-10T08:37:38.421Z,896
2018-05-10T08:38:18.922Z,1016
2018-05-10T08:38:59.407Z,1112
2018-05-10T08:39:39.874Z,1224
2018-05-10T08:40:20.337Z,1312
2018-05-10T08:41:00.858Z,1344
2018-05-10T08:41:41.380Z,1320
2018-05-10T08:42:21.869Z,1320
2018-05-10T08:43:02.349Z,1328
2018-05-10T08:43:42.888Z,1364
2018-05-10T08:44:23.367Z,1348
2018-05-10T08:45:03.880Z,1240
2018-05-10T08:45:44.427Z,1220
2018-05-10T08:46:24.886Z,1180
2018-05-10T08:47:05.382Z,1248
2018-05-10T08:47:45.850Z,1392
2018-05-10T08:48:26.358Z,1424
2018-05-10T08:49:06.858Z,1408
2018-05-10T08:49:47.336Z,1484
2018-05-10T08:50:27.825Z,1600
2018-05-10T08:51:08.302Z,1600
2018-05-10T08:51:48.847Z,1476
2018-05-10T08:52:30.136Z,1416
2018-05-10T08:53:09.783Z,1392
2018-05-10T08:53:50.263Z,1312
2018-05-10T08:54:30.770Z,1252
2018-05-10T08:55:11.215Z,1248
2018-05-10T08:55:51.680Z,1240
2018-05-10T08:56:32.242Z,1252
2018-05-10T08:57:12.680Z,1244
2018-05-10T08:57:53.167Z,1300
2018-05-10T08:58:33.658Z,1280
2018-05-10T08:59:14.178Z,1296
2018-05-10T08:59:54.779Z,1308
2018-05-10T09:00:35.210Z,1436
2018-05-10T09:01:15.727Z,1484
2018-05-10T09:01:56.213Z,1464
2018-05-10T09:02:36.711Z,1488
2018-05-10T09:03:17.169Z,1512
2018-05-10T09:03:57.712Z,1504
2018-05-10T09:04:38.215Z,1456
2018-05-10T09:05:18.708Z,1348
2018-05-10T09:05:59.214Z,1300
2018-05-10T09:06:39.712Z,1380
2018-05-10T09:07:20.271Z,1552
2018-05-10T09:08:00.708Z,1712
2018-05-10T09:08:41.218Z,1760
2018-05-10T09:09:21.699Z,1592
2018-05-10T09:10:02.194Z,1412
2018-05-10T09:10:42.641Z,1376
2018-05-10T09:11:23.172Z,1440
2018-05-10T09:12:03.686Z,1600
2018-05-10T09:12:44.200Z,1800
2018-05-10T09:13:24.710Z,1976
2018-05-10T09:14:05.188Z,2116
2018-05-10T09:14:45.719Z,2248
2018-05-10T09:15:26.286Z,2324
2018-05-10T09:16:06.742Z,2296
2018-05-10T09:16:47.285Z,2248
2018-05-10T09:17:27.744Z,2080
2018-05-10T09:18:08.256Z,1912
2018-05-10T09:18:48.750Z,1828
2018-05-10T09:19:29.243Z,1856
2018-05-10T09:20:09.799Z,1928
2018-05-10T09:20:50.228Z,1960
2018-05-10T09:21:30.735Z,1936
2018-05-10T09:22:11.227Z,1968
2018-05-10T09:22:51.705Z,1988
2018-05-10T09:23:32.241Z,2104
2018-05-10T09:24:12.749Z,2260
2018-05-10T09:24:53.236Z,2416
2018-05-10T09:25:33.745Z,2508
2018-05-10T09:26:14.244Z,2572
2018-05-10T09:26:54.742Z,2612
2018-05-10T09:27:35.294Z,2596
2018-05-10T09:28:15.837Z,2580
2018-05-10T09:28:56.273Z,2508
2018-05-10T09:29:36.787Z,2464
2018-05-10T09:30:17.266Z,2468
2018-05-10T09:30:57.743Z,2528
2018-05-10T09:31:38.317Z,2560
2018-05-10T09:32:18.729Z,2580
2018-05-10T09:32:59.254Z,2496